METAR Data
IDs: Format: Raw Decoded Include TAF

Data at: 2052 UTC 19 May 2019

KPSN 192035Z AUTO 24005KT 10SM CLR 31/21 A2987 RMK AO2 T03160218
KPSN 192015Z AUTO 13003KT 10SM CLR 31/22 A2987 RMK AO2 T03120220
KPSN 191955Z AUTO 20005KT 10SM CLR 31/22 A2988 RMK AO2 T03120219
KPSN 191935Z AUTO 16004KT 10SM SCT038 SCT055 31/22 A2989 RMK AO2 T03110228
KPSN 191915Z AUTO 16003KT 10SM SCT036 SCT044 30/22 A2989 RMK AO2 T03060221
KPSN 191855Z AUTO 22004KT 7SM SCT036 SCT100 30/22 A2989 RMK AO2 T03070227
KPSN 191835Z AUTO 20005KT 7SM SCT033 SCT043 30/23 A2990 RMK AO2 T03060230
KPSN 191815Z AUTO 00000KT 7SM SCT031 30/22 A2990 RMK AO2 T03010229
KPSN 191755Z AUTO 20004KT 7SM SCT031 29/23 A2990 RMK AO2 T02960231
KPSN 191735Z AUTO 25004KT 7SM SCT026 SCT035 29/23 A2990 RMK AO2 T02960233
KPSN 191715Z AUTO 24005KT 7SM SCT024 BKN032 BKN038 28/23 A2990 RMK AO2 T02890232
KPSN 191655Z AUTO 28004KT 7SM SCT020 SCT030 SCT034 28/23 A2990 RMK AO2 T02880232
KPSN 191635Z AUTO 24004KT 7SM BKN020 BKN030 BKN041 28/23 A2990 RMK AO2 T02820238
KPSN 191615Z AUTO 21005KT 7SM BKN020 BKN026 BKN030 28/23 A2990 RMK AO2 T02820238
KPSN 191600Z AUTO 23004KT 7SM SCT016 SCT023 SCT032 27/23 A2989 RMK AO2 T02800237
KPSN 191535Z AUTO 26006KT 7SM BKN016 BKN023 BKN031 28/24 A2989 RMK AO2 T02810244
KPSN 191515Z AUTO 24007KT 5SM HZ BKN012 BKN019 BKN024 27/24 A2989 RMK AO2 T02720246
KPSN 191455Z AUTO 24007KT 5SM BR OVC012 27/25 A2988 RMK AO2 T02700247
KPSN 191435Z AUTO 21006KT 4SM BR BKN012 26/24 A2988 RMK AO2 T02630245
KPSN 191415Z AUTO 21006KT 4SM BR CLR 26/24 A2987 RMK AO2 T02600247
KPSN 191355Z AUTO 21004KT 4SM BR CLR 25/25 A2987 RMK AO2 T02560250
KPSN 191335Z AUTO 19005KT 3SM BR BKN017 BKN024 BKN031 25/25 A2987 RMK AO2 T02500250
KPSN 191315Z AUTO 18005KT 3SM BR 25/25 A2987 RMK AO2 SKY OBSCURED T02470247
KPSN 191255Z AUTO 21005KT 3SM BR 24/24 A2986 RMK AO2 SKY OBSCURED T02430243
KPSN 191235Z AUTO 00000KT 3SM BR SCT013 23/23 A2985 RMK AO2 T02400240
KPSN 191215Z AUTO 16004KT 2 1/2SM BR SCT048 23/23 A2983 RMK AO2 T02350235
KPSN 191155Z AUTO 17003KT 1 1/2SM BR BKN013 BKN018 BKN023 23/23 A2983 RMK AO2 T02320232
KPSN 191135Z AUTO 00000KT 1 1/2SM BR SCT004 BKN010 OVC016 23/23 A2983 RMK AO2 T02320232
KPSN 191115Z AUTO 31003KT 2SM BR BKN004 OVC012 22/22 A2982 RMK AO2 T02300230
KPSN 191055Z AUTO 00000KT 2 1/2SM BR SCT004 BKN013 OVC018 23/23 A2980 RMK AO2 T02330233
KPSN 191035Z AUTO 20003KT 3SM BR OVC006 23/23 A2983 RMK AO2 T02350235
KPSN 191015Z AUTO 00000KT 3SM BR OVC008 23/23 A2981 RMK AO2 T02340234
KPSN 190955Z AUTO 15003KT 4SM BR BKN008 OVC012 23/23 A2980 RMK AO2 T02320232
KPSN 190935Z AUTO 15003KT 3SM BR BKN006 OVC010 23/23 A2980 RMK AO2 T02330233
KPSN 190915Z AUTO 15003KT 4SM BR SCT006 BKN010 OVC019 23/23 A2981 RMK AO2 T02340234
KPSN 190855Z AUTO 16004KT 4SM BR SCT010 OVC019 23/23 A2980 RMK AO2 T02330233
KPSN 190835Z AUTO 16003KT 5SM BR OVC015 22/22 A2978 RMK AO2
KPSN 190815Z AUTO 17005KT 7SM SCT010 OVC017 22/22 A2982 RMK AO2 T02270227
KPSN 190755Z AUTO 17003KT 7SM OVC016 22/22 A2977 RMK AO2 T02220222
KPSN 190735Z AUTO 00000KT 7SM BKN016 OVC022 22/22 A2980 RMK AO2 T02200220
KPSN 190715Z AUTO 00000KT 7SM BKN018 OVC023 21/21 A2977 RMK AO2 T02180218
KPSN 190655Z AUTO 00000KT 7SM BKN021 BKN026 21/21 A2977 RMK AO2 T02150215
KPSN 190635Z AUTO 14004KT 10SM CLR 21/21 A2980 RMK AO2 T02100210
KPSN 190615Z AUTO 13003KT 10SM SCT026 21/21 A2978 RMK AO2 T02080208
KPSN 190555Z AUTO 12004KT 10SM SCT026 20/20 A2973 RMK AO2 T02040204
KPSN 190535Z AUTO 15003KT 10SM SCT027 20/20 A2971 RMK AO2 T02020202
KPSN 190515Z AUTO 00000KT 10SM CLR 20/20 A2970 RMK AO2 T02020202
KPSN 190455Z AUTO 12003KT 10SM CLR 20/20 A2971 RMK AO2 T02020202
KPSN 190435Z AUTO 12003KT 10SM SCT090 SCT110 20/20 A2972 RMK AO2 T02040204
KPSN 190415Z AUTO 12004KT 10SM SCT090 SCT110 20/20 A2975 RMK AO2 T02050205
KPSN 190355Z AUTO 10003KT 10SM SCT034 SCT100 20/20 A2975 RMK AO2 P0003 T02060206
KPSN 190335Z AUTO 00000KT 10SM SCT007 SCT034 OVC100 20/20 A2976 RMK AO2 P0003 T02050205
KPSN 190315Z AUTO 00000KT 7SM -RA BKN007 BKN020 OVC095 20/20 A2978 RMK AO2 P0003 T02070207
KPSN 190255Z AUTO 11009KT 1 3/4SM +RA BKN004 BKN008 OVC023 20/20 A2977 RMK AO2 P0085 T02000200
KPSN 190235Z AUTO 36015KT 2 1/2SM +RA SCT004 BKN019 OVC024 20/20 A2974 RMK AO2 P0032 T02000200
KPSN 190215Z AUTO 00000KT 7SM RA SCT022 BKN027 OVC034 20/20 A2974 RMK AO2 P0001 T02010201
KPSN 190155Z AUTO 13006KT 7SM RA SCT026 BKN037 OVC070 20/20 A2972 RMK AO2 P0014 T02020202
KPSN 190135Z AUTO 09006KT 4SM -RA SCT012 SCT047 BKN080 20/20 A2970 RMK AO2 P0013 T02020202
KPSN 190115Z AUTO 12003KT 7SM -RA SCT006 SCT018 BKN050 20/20 A2971 RMK AO2 P0001 T02040204
KPSN 190055Z AUTO 19003KT 1 1/2SM +RA BKN004 OVC009 20/20 A2973 RMK AO2 P0222 T02070207
KPSN 190035Z AUTO 06016G23KT 3/4SM +RA OVC002 21/21 A2971 RMK AO2 P0175 T02130213
KPSN 190015Z AUTO 34011G25KT 1SM +RA BKN003 BKN011 BKN023 21/21 A2970 RMK AO2 P0075 T02150215
KPSN 182350Z AUTO 27024G28KT 7SM RA OVC023 19/18 A2972 RMK AO2 P0003 T01950185
KPSN 182335Z AUTO 01011G15KT 10SM -RA OVC025 20/18 A2966 RMK AO2 T01970181
KPSN 182315Z AUTO 05009KT 10SM -RA BKN026 OVC036 20/18 A2970 RMK AO2 T02020180
KPSN 182255Z AUTO 06007KT 10SM -RA BKN030 BKN037 OVC044 19/17 A2973 RMK AO2 P0001 T01950176
KPSN 182235Z AUTO 36009G15KT 10SM -RA SCT014 BKN037 OVC044 20/16 A2975 RMK AO2 T02070160
KPSN 182215Z AUTO 35014G19KT 10SM SCT014 BKN021 BKN031 24/18 A2972 RMK AO2 T02450191
KPSN 182155Z AUTO 15005KT 10SM SCT030 SCT035 SCT100 26/23 A2973 RMK AO2 T02600232
KPSN 182135Z AUTO 12011G15KT 10SM SCT030 SCT035 BKN100 26/23 A2970 RMK AO2 T02620235
KPSN 182115Z AUTO 13009KT 10SM -RA SCT030 BKN070 OVC095 27/23 A2971 RMK AO2 T02700236
KPSN 182055Z AUTO 13009KT 120V180 10SM SCT030 BKN036 BKN041 27/23 A2970 RMK AO2 T02740238
KPSN 182035Z AUTO 14007KT 10SM SCT026 SCT033 SCT043 28/25 A2970 RMK AO2 T02820247
KPSN 182015Z AUTO 13007KT 10SM SCT029 SCT036 BKN043 27/25 A2972 RMK AO2 T02710251
KPSN 181955Z AUTO 13005KT 10SM SCT013 SCT023 BKN041 26/24 A2973 RMK AO2 P0007 T02600243
KPSN 181935Z AUTO 15008KT 5SM -RA SCT018 BKN034 BKN046 26/23 A2974 RMK AO2 P0004 T02610241
KPSN 181915Z AUTO 14009KT 10SM SCT048 SCT070 SCT110 28/23 A2974 RMK AO2 T02830236
KPSN 181855Z AUTO 14005KT 10SM SCT032 SCT040 BKN075 27/22 A2977 RMK AO2 T02750226
KPSN 181835Z AUTO 15005KT 10SM SCT035 SCT045 BKN080 27/22 A2977 RMK AO2 T02780228
KPSN 181815Z AUTO 16006KT 10SM SCT033 SCT048 BKN060 27/22 A2979 RMK AO2 T02720227
KPSN 181755Z AUTO 16004KT 10SM SCT031 BKN060 OVC085 27/22 A2979 RMK AO2 T02720227
KPSN 181735Z AUTO 17009KT 10SM -RA SCT031 BKN039 OVC075 27/22 A2978 RMK AO2 T02710222
KPSN 181715Z AUTO 17008G19KT 10SM SCT028 SCT036 BKN050 27/22 A2978 RMK AO2 T02750222
KPSN 181655Z AUTO 16009G17KT 150V210 10SM SCT030 BKN044 BKN080 28/22 A2977 RMK AO2 T02810225
KPSN 181635Z AUTO 16008G16KT 120V180 10SM SCT021 SCT030 BKN044 27/23 A2978 RMK AO2 T02760233
KPSN 181615Z AUTO 17006KT 7SM -RA SCT019 OVC025 25/22 A2979 RMK AO2 T02520228
KPSN 181555Z AUTO 15007KT 10SM BKN022 BKN027 OVC034 25/22 A2978 RMK AO2 T02570225
KPSN 181535Z AUTO 14009G14KT 10SM SCT017 BKN023 OVC030 25/22 A2977 RMK AO2 T02570225
KPSN 181515Z AUTO 14013G18KT 10SM BKN017 BKN023 OVC030 25/22 A2977 RMK AO2 T02560224
KPSN 181455Z AUTO 14008G15KT 10SM SCT017 OVC024 25/22 A2979 RMK AO2 T02550224
KPSN 181435Z AUTO 15008G15KT 10SM BKN019 OVC024 25/22 A2979 RMK AO2 T02510223
KPSN 181415Z AUTO 14010G14KT 10SM BKN019 OVC023 25/22 A2980 RMK AO2 T02500223
KPSN 181355Z AUTO 15007G15KT 10SM BKN017 OVC023 25/22 A2981 RMK AO2 T02480222
KPSN 181335Z AUTO 13008G15KT 10SM BKN017 OVC025 24/22 A2980 RMK AO2 T02440220
KPSN 181315Z AUTO 14008KT 10SM BKN017 BKN022 OVC030 23/22 A2981 RMK AO2 T02410220
KPSN 181255Z AUTO 14008KT 10SM BKN019 BKN037 OVC070 23/22 A2981 RMK AO2 T02400220
KPSN 181235Z AUTO 13006KT 10SM SCT015 BKN026 OVC070 23/21 A2981 RMK AO2 T02370218
KPSN 181215Z AUTO 13005KT 10SM BKN015 OVC028 23/21 A2981 RMK AO2 T02360217
KPSN 181155Z AUTO 13005KT 10SM BKN013 BKN023 OVC070 23/21 A2981 RMK AO2 T02350217
KPSN 181135Z AUTO 13008KT 110V170 10SM BKN015 OVC022 23/21 A2980 RMK AO2 T02350215
KPSN 181115Z AUTO 13008KT 10SM BKN015 OVC065 23/21 A2980 RMK AO2 T02330215
KPSN 181055Z AUTO 13006KT 10SM SCT015 SCT020 BKN065 23/21 A2980 RMK AO2 T02320214
KPSN 181035Z AUTO 14006KT 110V170 10SM SCT013 SCT022 BKN065 23/21 A2980 RMK AO2 T02330213
KPSN 181015Z AUTO 13009KT 10SM SCT015 BKN065 23/21 A2980 RMK AO2 T02350213
KPSN 180955Z AUTO 14007KT 10SM SCT015 BKN027 BKN065 23/21 A2980 RMK AO2 T02360213
KPSN 180935Z AUTO 15006KT 10SM SCT017 OVC025 23/21 A2982 RMK AO2 T02370215
KPSN 180915Z AUTO 15007KT 10SM BKN017 OVC024 23/21 A2982 RMK AO2 T02380215
KPSN 180855Z AUTO 16006KT 10SM OVC019 23/21 A2982 RMK AO2 T02380214